createdAt,value
2023-01-11T09:30:39.165Z,8.97
2023-01-11T09:32:44.116Z,8.98
2023-01-11T09:34:49.779Z,8.98
2023-01-11T09:36:52.947Z,8.98
2023-01-11T09:39:01.768Z,9.00
2023-01-11T09:41:13.023Z,9.00
2023-01-11T09:43:17.564Z,9.01
2023-01-11T09:45:23.370Z,9.02
2023-01-11T09:47:36.667Z,9.03
2023-01-11T09:49:44.789Z,9.06
2023-01-11T09:51:49.951Z,9.06
2023-01-11T09:53:54.536Z,9.08
2023-01-11T09:56:02.967Z,9.09
2023-01-11T09:58:21.734Z,9.10
2023-01-11T10:00:33.457Z,9.11
2023-01-11T10:02:53.860Z,9.11
2023-01-11T10:05:28.680Z,9.11
2023-01-11T10:18:22.844Z,9.13
2023-01-11T10:18:49.425Z,9.14
2023-01-11T10:20:56.328Z,9.15
2023-01-11T10:23:06.417Z,9.17
2023-01-11T10:25:18.857Z,9.18
2023-01-11T10:27:27.698Z,9.19
2023-01-11T10:29:59.557Z,9.19
2023-01-11T10:32:33.936Z,9.22
2023-01-11T10:34:59.696Z,9.23
2023-01-11T10:37:23.874Z,9.28
2023-01-11T10:39:51.993Z,9.31
2023-01-11T10:42:07.720Z,9.32
2023-01-11T10:44:19.347Z,9.32
2023-01-11T10:46:25.905Z,9.33
2023-01-11T10:48:33.538Z,9.34
2023-01-11T10:50:46.834Z,9.34
2023-01-11T10:52:56.275Z,9.34
2023-01-11T10:55:02.898Z,9.35
2023-01-11T10:57:18.052Z,9.37
2023-01-11T10:59:41.222Z,9.37
2023-01-11T11:01:54.498Z,9.39
2023-01-11T11:04:10.685Z,9.40
2023-01-11T11:06:25.510Z,9.40
2023-01-11T11:08:32.210Z,9.40
2023-01-11T11:10:46.378Z,9.40
2023-01-11T11:12:59.615Z,9.41
2023-01-11T11:15:11.271Z,9.40
2023-01-11T11:17:18.298Z,9.40
2023-01-11T11:19:26.315Z,9.41
2023-01-11T11:21:36.755Z,9.40
2023-01-11T11:23:40.744Z,9.37
2023-01-11T11:25:49.652Z,9.37
2023-01-11T11:27:56.733Z,9.36
2023-01-11T11:30:00.006Z,9.36
2023-01-11T11:32:03.518Z,9.36
2023-01-11T11:34:08.863Z,9.37
2023-01-11T11:36:14.182Z,9.38
2023-01-11T11:38:24.334Z,9.39
2023-01-11T11:40:33.145Z,9.39
2023-01-11T11:42:36.232Z,9.39
2023-01-11T11:44:39.741Z,9.43
2023-01-11T11:46:56.788Z,9.43
2023-01-11T11:49:13.233Z,9.45
2023-01-11T11:51:22.054Z,9.46
2023-01-11T11:53:33.535Z,9.46
2023-01-11T11:55:37.055Z,9.46
2023-01-11T11:57:42.989Z,9.46
2023-01-11T11:59:49.254Z,9.45
2023-01-11T12:02:00.108Z,9.47
2023-01-11T12:04:05.878Z,9.46
2023-01-11T12:06:09.124Z,9.45
2023-01-11T12:08:16.064Z,9.45
2023-01-11T12:10:23.713Z,9.45
2023-01-11T12:12:29.544Z,9.45
2023-01-11T12:14:35.184Z,9.43
2023-01-11T12:16:41.331Z,9.43
2023-01-11T12:18:44.692Z,9.41
2023-01-11T12:20:48.869Z,9.41
2023-01-11T12:23:18.114Z,9.40
2023-01-11T12:25:25.228Z,9.38
2023-01-11T12:27:39.718Z,9.36
2023-01-11T12:29:54.050Z,9.35
2023-01-11T12:32:11.079Z,9.33
2023-01-11T12:34:31.943Z,9.31
2023-01-11T12:36:44.689Z,9.30
2023-01-11T12:39:02.890Z,9.30
2023-01-11T12:41:41.978Z,9.29
2023-01-11T12:44:05.257Z,9.28
2023-01-11T12:46:21.338Z,9.27
2023-01-11T12:48:39.628Z,9.27
2023-01-11T12:50:59.277Z,9.26
2023-01-11T12:53:17.212Z,9.26
2023-01-11T12:55:34.180Z,9.25
2023-01-11T12:57:51.192Z,9.24
2023-01-11T13:00:21.594Z,9.23
2023-01-11T13:02:43.484Z,9.23
2023-01-11T13:04:53.691Z,9.24
2023-01-11T13:07:04.699Z,9.26
2023-01-11T13:09:17.697Z,9.26
2023-01-11T13:11:36.550Z,9.28
2023-01-11T13:13:53.085Z,9.30
2023-01-11T13:16:02.635Z,9.31
2023-01-11T13:18:18.847Z,9.33
2023-01-11T13:20:34.103Z,9.37
2023-01-11T13:22:41.521Z,9.43
2023-01-11T13:24:48.912Z,9.57
2023-01-11T13:26:54.046Z,9.83
2023-01-11T13:29:03.387Z,10.17
2023-01-11T13:31:10.587Z,10.44
2023-01-11T13:33:19.640Z,10.63
2023-01-11T13:35:33.097Z,10.73
2023-01-11T13:37:44.145Z,10.72
2023-01-11T13:39:54.326Z,10.66
2023-01-11T13:42:03.293Z,10.57
2023-01-11T13:44:14.269Z,10.45
2023-01-11T13:46:23.471Z,10.37
2023-01-11T13:48:29.736Z,10.27
2023-01-11T13:50:38.598Z,10.19
2023-01-11T13:52:51.249Z,10.07
2023-01-11T13:54:59.664Z,9.95
2023-01-11T13:57:07.830Z,9.83
2023-01-11T13:59:17.763Z,9.72
2023-01-11T14:01:25.205Z,9.61
2023-01-11T14:03:32.248Z,9.51
2023-01-11T14:05:44.971Z,9.42
2023-01-11T14:08:12.770Z,9.33
2023-01-11T14:10:32.214Z,9.24
2023-01-11T14:12:51.580Z,9.17
2023-01-11T14:15:08.485Z,9.11
2023-01-11T14:17:32.896Z,9.06
2023-01-11T14:19:44.528Z,9.00
2023-01-11T14:21:58.557Z,8.97
2023-01-11T14:24:03.592Z,8.92
2023-01-11T14:26:50.819Z,8.89
2023-01-11T14:29:10.095Z,8.84
2023-01-11T14:31:40.221Z,8.81
2023-01-11T14:34:04.745Z,8.78
2023-01-11T14:36:35.260Z,8.74
2023-01-11T14:39:01.688Z,8.72
2023-01-11T14:41:26.311Z,8.68
2023-01-11T14:43:48.414Z,8.66
2023-01-11T14:46:11.082Z,8.64
2023-01-11T14:48:25.616Z,8.63
2023-01-11T14:50:42.713Z,8.63
2023-01-11T14:52:47.248Z,8.65
2023-01-11T14:54:54.028Z,8.65
2023-01-11T14:56:58.244Z,8.63
2023-01-11T14:59:06.234Z,8.58
2023-01-11T15:01:11.917Z,8.53
2023-01-11T15:03:39.623Z,8.46
2023-01-11T15:05:47.756Z,8.42
2023-01-11T15:07:51.808Z,8.38
2023-01-11T15:09:55.191Z,8.33
2023-01-11T15:12:12.720Z,8.29
2023-01-11T15:14:28.190Z,8.23
2023-01-11T15:16:50.843Z,8.18
2023-01-11T15:18:56.026Z,8.13
2023-01-11T15:21:05.246Z,8.09
2023-01-11T15:23:08.307Z,8.06
2023-01-11T15:25:22.682Z,8.03
2023-01-11T15:27:27.558Z,8.01
2023-01-11T15:29:32.879Z,7.98
2023-01-11T15:31:39.991Z,7.94
2023-01-11T15:33:47.977Z,7.89
2023-01-11T15:36:04.146Z,7.83
2023-01-11T15:38:16.577Z,7.80
2023-01-11T15:40:21.731Z,7.76
2023-01-11T15:42:49.618Z,7.71
2023-01-11T15:45:17.336Z,7.68
2023-01-11T15:47:36.892Z,7.64
2023-01-11T15:50:07.091Z,7.59
2023-01-11T15:52:37.383Z,7.54
2023-01-11T15:55:09.374Z,7.49
2023-01-11T15:57:50.387Z,7.42
2023-01-11T16:00:29.968Z,7.37
2023-01-11T16:03:09.850Z,7.33
2023-01-11T16:05:19.500Z,7.29
2023-01-11T16:07:34.774Z,7.28
2023-01-11T16:10:14.793Z,7.26
2023-01-11T16:12:46.588Z,7.23
2023-01-11T16:15:05.558Z,7.21
2023-01-11T16:17:13.922Z,7.19
2023-01-11T16:19:20.443Z,7.18
2023-01-11T16:21:32.635Z,7.18
2023-01-11T16:23:37.163Z,7.16
2023-01-11T16:25:42.873Z,7.15
2023-01-11T16:27:53.602Z,7.13
2023-01-11T16:29:57.229Z,7.12
2023-01-11T16:32:02.444Z,7.10
2023-01-11T16:34:08.121Z,7.08
2023-01-11T16:36:14.316Z,7.07
2023-01-11T16:38:20.360Z,7.06
2023-01-11T16:40:29.897Z,7.06
2023-01-11T16:42:36.909Z,7.05
2023-01-11T16:44:46.049Z,7.04
2023-01-11T16:47:17.057Z,7.01
2023-01-11T16:49:20.928Z,6.99
2023-01-11T16:51:24.011Z,6.96
2023-01-11T16:53:29.328Z,6.92
2023-01-11T16:55:37.821Z,6.90
2023-01-11T16:57:45.198Z,6.85
2023-01-11T17:00:01.735Z,6.81
2023-01-11T17:02:27.620Z,6.77
2023-01-11T17:04:32.869Z,6.75
2023-01-11T17:06:36.228Z,6.72
2023-01-11T17:08:40.918Z,6.70
2023-01-11T17:10:45.439Z,6.66
2023-01-11T17:13:06.336Z,6.63
2023-01-11T17:15:23.120Z,6.60
2023-01-11T17:17:27.316Z,6.58
2023-01-11T17:19:32.821Z,6.57
2023-01-11T17:21:36.415Z,6.57
2023-01-11T17:23:47.089Z,6.55
2023-01-11T17:25:56.678Z,6.54
2023-01-11T17:28:03.793Z,6.53
2023-01-11T17:30:16.752Z,6.52
2023-01-11T17:32:25.377Z,6.54
2023-01-11T17:34:32.254Z,6.54
2023-01-11T17:36:37.109Z,6.57
2023-01-11T17:38:43.317Z,6.58
2023-01-11T17:40:46.898Z,6.58
2023-01-11T17:43:10.075Z,6.57
2023-01-11T17:45:21.227Z,6.56
2023-01-11T17:47:25.018Z,6.55
2023-01-11T17:49:28.275Z,6.54
2023-01-11T17:51:34.627Z,6.54
2023-01-11T17:53:40.029Z,6.53
2023-01-11T17:55:51.216Z,6.54
2023-01-11T17:58:19.719Z,6.54
2023-01-11T18:00:27.076Z,6.55
2023-01-11T18:02:30.753Z,6.53
2023-01-11T18:04:33.938Z,6.51
2023-01-11T18:06:40.809Z,6.48
2023-01-11T18:08:49.068Z,6.46
2023-01-11T18:10:56.085Z,6.44
2023-01-11T18:13:01.041Z,6.43
2023-01-11T18:15:07.770Z,6.40
2023-01-11T18:17:31.374Z,6.39
2023-01-11T18:19:36.583Z,6.36
2023-01-11T18:21:42.710Z,6.34
2023-01-11T18:23:45.817Z,6.32
2023-01-11T18:25:48.942Z,6.30
2023-01-11T18:27:52.946Z,6.28
2023-01-11T18:29:57.779Z,6.27
2023-01-11T18:32:02.275Z,6.27
2023-01-11T18:34:05.895Z,6.30
2023-01-11T18:36:20.533Z,6.32
2023-01-11T18:38:25.720Z,6.34
2023-01-11T18:40:30.926Z,6.37
2023-01-11T18:42:34.089Z,6.39
2023-01-11T18:44:38.028Z,6.43
2023-01-11T18:46:41.243Z,6.47
2023-01-11T18:48:45.712Z,6.51
2023-01-11T18:50:51.984Z,6.52
2023-01-11T18:52:55.091Z,6.52
2023-01-11T18:54:58.765Z,6.50
2023-01-11T18:57:01.886Z,6.47
2023-01-11T18:59:05.011Z,6.45
2023-01-11T19:01:09.036Z,6.43
2023-01-11T19:05:19.685Z,6.39
2023-01-11T19:07:24.047Z,6.39
2023-01-11T19:09:27.148Z,6.40
2023-01-11T19:11:30.990Z,6.41
2023-01-11T19:13:34.054Z,6.45
2023-01-11T19:15:37.442Z,6.50
2023-01-11T19:17:40.583Z,6.55
2023-01-11T19:19:43.695Z,6.59
2023-01-11T19:21:48.143Z,6.61
2023-01-11T19:23:51.311Z,6.62
2023-01-11T19:25:57.501Z,6.61
2023-01-11T19:28:00.688Z,6.59
2023-01-11T19:30:03.953Z,6.56
2023-01-11T19:32:07.180Z,6.54
2023-01-11T19:34:10.306Z,6.51
2023-01-11T19:36:13.401Z,6.47
2023-01-11T19:38:18.469Z,6.45
2023-01-11T19:40:21.629Z,6.42
2023-01-11T19:42:24.789Z,6.39
2023-01-11T19:44:31.237Z,6.37
2023-01-11T19:46:34.461Z,6.34
2023-01-11T19:48:37.742Z,6.33
2023-01-11T19:50:41.245Z,6.32
2023-01-11T19:52:45.102Z,6.29
2023-01-11T19:54:49.675Z,6.28
2023-01-11T19:56:53.526Z,6.28
2023-01-11T19:58:56.788Z,6.27
2023-01-11T20:01:00.429Z,6.25
2023-01-11T20:03:06.277Z,6.24
2023-01-11T20:05:10.040Z,6.24
2023-01-11T20:07:14.627Z,6.24
2023-01-11T20:09:18.684Z,6.23
2023-01-11T20:11:23.566Z,6.22
2023-01-11T20:13:26.709Z,6.21
2023-01-11T20:15:30.089Z,6.19
2023-01-11T20:17:33.654Z,6.17
2023-01-11T20:19:37.091Z,6.16
2023-01-11T20:21:40.284Z,6.16
2023-01-11T20:23:43.572Z,6.15
2023-01-11T20:25:47.022Z,6.14
2023-01-11T20:27:51.616Z,6.13
2023-01-11T20:29:54.823Z,6.14
2023-01-11T20:32:13.398Z,6.13
2023-01-11T20:34:21.508Z,6.11
2023-01-11T20:36:26.233Z,6.10
2023-01-11T20:38:29.531Z,6.07
2023-01-11T20:40:33.017Z,6.07
2023-01-11T20:42:36.169Z,6.05
2023-01-11T20:44:41.348Z,6.04
2023-01-11T20:46:47.676Z,6.03
2023-01-11T20:48:51.260Z,6.02
2023-01-11T20:50:54.497Z,6.03
2023-01-11T20:52:59.537Z,6.00
2023-01-11T20:55:02.715Z,5.99
2023-01-11T20:57:12.153Z,5.96
2023-01-11T20:59:18.553Z,5.94
2023-01-11T21:01:25.136Z,5.95
2023-01-11T21:03:28.311Z,5.96
2023-01-11T21:05:31.462Z,5.99
2023-01-11T21:07:34.756Z,6.00
2023-01-11T21:09:37.997Z,6.02
2023-01-11T21:11:41.989Z,6.04
2023-01-11T21:13:45.210Z,6.05
2023-01-11T21:15:49.273Z,6.06
2023-01-11T21:17:53.758Z,6.07
2023-01-11T21:19:57.354Z,6.09
2023-01-11T21:22:00.441Z,6.10
2023-01-11T21:24:05.159Z,6.12
2023-01-11T21:26:12.736Z,6.14
2023-01-11T21:28:15.803Z,6.15
2023-01-11T21:30:19.394Z,6.16
2023-01-11T21:32:22.742Z,6.17
2023-01-11T21:34:27.463Z,6.18
2023-01-11T21:36:32.125Z,6.20
2023-01-11T21:38:35.711Z,6.21
2023-01-11T21:40:38.763Z,6.23
2023-01-11T21:42:42.082Z,6.25
2023-01-11T21:44:45.392Z,6.27
2023-01-11T21:46:49.720Z,6.28
2023-01-11T21:48:52.786Z,6.29
2023-01-11T21:50:57.228Z,6.31
2023-01-11T21:53:00.257Z,6.32
2023-01-11T21:55:03.443Z,6.35
2023-01-11T21:57:06.502Z,6.37
2023-01-11T21:59:09.674Z,6.38
2023-01-11T22:01:14.204Z,6.41
2023-01-11T22:03:17.282Z,6.42
2023-01-11T22:05:20.358Z,6.45
2023-01-11T22:07:25.961Z,6.48
2023-01-11T22:09:29.130Z,6.52
2023-01-11T22:11:33.192Z,6.55
2023-01-11T22:13:36.935Z,6.58
2023-01-11T22:15:39.993Z,6.60
2023-01-11T22:17:43.185Z,6.62
2023-01-11T22:19:46.265Z,6.66
2023-01-11T22:21:49.430Z,6.68
2023-01-11T22:23:56.610Z,6.72
2023-01-11T22:26:04.240Z,6.74
2023-01-11T22:28:07.329Z,6.75
2023-01-11T22:30:11.646Z,6.78
2023-01-11T22:32:15.059Z,6.79
2023-01-11T22:34:19.467Z,6.81
2023-01-11T22:36:24.192Z,6.83
2023-01-11T22:38:27.245Z,6.85
2023-01-11T22:40:31.705Z,6.85
2023-01-11T22:42:34.825Z,6.87
2023-01-11T22:44:37.934Z,6.87
2023-01-11T22:46:41.138Z,6.87
2023-01-11T22:48:44.401Z,6.87
2023-01-11T22:50:47.526Z,6.89
2023-01-11T22:52:50.572Z,6.90
2023-01-11T22:54:53.681Z,6.91
2023-01-11T22:56:58.544Z,6.93
2023-01-11T22:59:01.885Z,6.93
2023-01-11T23:01:12.219Z,6.94
2023-01-11T23:03:16.496Z,6.94
2023-01-11T23:05:19.747Z,6.95
2023-01-11T23:07:22.852Z,6.95
2023-01-11T23:09:25.969Z,6.97
2023-01-11T23:11:47.909Z,6.97
2023-01-11T23:13:58.928Z,6.97
2023-01-11T23:16:02.062Z,6.96
2023-01-11T23:18:05.958Z,6.95
2023-01-11T23:20:10.723Z,6.95
2023-01-11T23:22:16.780Z,6.95
2023-01-11T23:24:20.079Z,6.95
2023-01-11T23:26:23.297Z,6.94
2023-01-11T23:28:29.787Z,6.94
2023-01-11T23:30:34.234Z,6.94
2023-01-11T23:32:37.339Z,6.93
2023-01-11T23:34:40.393Z,6.93
2023-01-11T23:36:44.393Z,6.92
2023-01-11T23:38:47.603Z,6.91
2023-01-11T23:41:08.511Z,6.91
2023-01-11T23:43:11.600Z,6.91
2023-01-11T23:45:14.763Z,6.92
2023-01-11T23:47:21.295Z,6.92
2023-01-11T23:49:24.834Z,6.93
2023-01-11T23:51:27.895Z,6.94
2023-01-11T23:53:30.958Z,6.95
2023-01-11T23:55:34.094Z,6.95
2023-01-11T23:57:37.187Z,6.97
2023-01-11T23:59:40.578Z,6.96
